| time (UTC) | temp C | wind direction | speed KPH | gust KPH | rain 1hr cm | rain 24hr cm | rain mn cm | humidity % | barometer mb |
| 20260508050234 | 19 | 24 | 12.9 | 14.5 | 0.00 | 0.00 | 0.00 | 11 | 814.4 |
| 20260508045730 | 18 | 345 | 12.9 | 14.5 | 0.00 | 0.00 | 0.00 | 13 | 814.3 |
| 20260508045228 | 18 | 341 | 8.0 | 14.5 | 0.00 | 0.00 | 0.00 | 13 | 814.5 |
| 20260508044725 | 18 | 24 | 14.5 | 17.7 | 0.00 | 0.00 | 0.00 | 14 | 814.5 |
| 20260508044222 | 18 | 10 | 12.9 | 17.7 | 0.00 | 0.00 | 0.00 | 15 | 814.8 |
| 20260508043718 | 18 | 1 | 6.4 | 9.7 | 0.00 | 0.00 | 0.00 | 15 | 814.8 |
| 20260508043216 | 18 | 2 | 11.3 | 12.9 | 0.00 | 0.00 | 0.00 | 15 | 814.4 |
| 20260508042712 | 19 | 351 | 8.0 | 11.3 | 0.00 | 0.00 | 0.00 | 15 | 814.9 |
| 20260508042209 | 19 | 18 | 12.9 | 14.5 | 0.00 | 0.00 | 0.00 | 15 | 814.8 |
| 20260508041705 | 19 | 25 | 11.3 | 14.5 | 0.00 | 0.00 | 0.00 | 15 | 814.8 |
| 20260508041203 | 19 | 337 | 11.3 | 14.5 | 0.00 | 0.00 | 0.00 | 15 | 814.6 |
| 20260508040659 | 19 | 38 | 8.0 | 11.3 | 0.00 | 0.00 | 0.00 | 15 | 814.9 |
| 20260508040157 | 19 | 348 | 9.7 | 12.9 | 0.00 | 0.00 | 0.00 | 15 | 814.8 |
| 20260508035654 | 19 | 13 | 4.8 | 11.3 | 0.00 | 0.00 | 0.00 | 15 | 814.6 |
| 20260508035151 | 18 | 43 | 8.0 | 11.3 | 0.00 | 0.00 | 0.00 | 16 | 814.5 |
| 20260508034647 | 19 | 12 | 9.7 | 11.3 | 0.00 | 0.00 | 0.00 | 15 | 814.8 |
| 20260508034145 | 18 | 25 | 12.9 | 14.5 | 0.00 | 0.00 | 0.00 | 15 | 814.9 |
| 20260508033642 | 19 | 326 | 9.7 | 14.5 | 0.00 | 0.00 | 0.00 | 15 | 814.8 |
| 20260508033141 | 19 | 9 | 11.3 | 14.5 | 0.00 | 0.00 | 0.00 | 14 | 814.8 |
| 20260508032636 | 19 | 356 | 9.7 | 12.9 | 0.00 | 0.00 | 0.00 | 15 | 814.6 |
| 20260508032134 | 20 | 351 | 12.9 | 16.1 | 0.00 | 0.00 | 0.00 | 14 | 814.6 |
| 20260508031631 | 19 | 29 | 8.0 | 9.7 | 0.00 | 0.00 | 0.00 | 14 | 814.6 |
| 20260508031127 | 19 | 319 | 4.8 | 4.8 | 0.00 | 0.00 | 0.00 | 15 | 814.8 |
| 20260508030623 | 18 | 313 | 4.8 | 4.8 | 0.00 | 0.00 | 0.00 | 17 | 814.8 |
| 20260508030121 | 20 | 303 | 1.6 | 1.6 | 0.00 | 0.00 | 0.00 | 16 | 814.4 |
| 20260508025617 | 18 | 344 | 6.4 | 8.0 | 0.00 | 0.00 | 0.00 | 15 | 814.4 |
| 20260508025115 | 20 | 244 | 4.8 | 4.8 | 0.00 | 0.00 | 0.00 | 16 | 814.6 |
| 20260508024610 | 20 | 0 | 6.4 | 8.0 | 0.00 | 0.00 | 0.00 | 12 | 814.3 |
| 20260508024108 | 20 | 39 | 9.7 | 9.7 | 0.00 | 0.00 | 0.00 | 12 | 814.2 |
| 20260508023604 | 20 | 33 | 6.4 | 8.0 | 0.00 | 0.00 | 0.00 | 13 | 814.3 |
| 20260508023102 | 21 | 353 | 8.0 | 11.3 | 0.00 | 0.00 | 0.00 | 13 | 814.3 |
| 20260508022557 | 20 | 2 | 9.7 | 11.3 | 0.00 | 0.00 | 0.00 | 13 | 814.4 |
| 20260508022055 | 21 | 17 | 11.3 | 12.9 | 0.00 | 0.00 | 0.00 | 13 | 814.1 |
| 20260508021550 | 21 | 343 | 8.0 | 9.7 | 0.00 | 0.00 | 0.00 | 13 | 814.2 |
| 20260508021046 | 21 | 26 | 8.0 | 11.3 | 0.00 | 0.00 | 0.00 | 13 | 814.3 |
| 20260508020544 | 21 | 359 | 9.7 | 12.9 | 0.00 | 0.00 | 0.00 | 14 | 813.9 |
| 20260508020042 | 21 | 12 | 9.7 | 12.9 | 0.00 | 0.00 | 0.00 | 13 | 814.0 |
| 20260508015539 | 21 | 24 | 6.4 | 9.7 | 0.00 | 0.00 | 0.00 | 14 | 813.9 |
| 20260508015036 | 21 | 3 | 11.3 | 12.9 | 0.00 | 0.00 | 0.00 | 15 | 813.9 |
| 20260508014532 | 20 | 21 | 14.5 | 17.7 | 0.00 | 0.00 | 0.00 | 15 | 814.0 |
| 20260508014028 | 20 | 343 | 12.9 | 16.1 | 0.00 | 0.00 | 0.00 | 16 | 814.2 |
| 20260508013524 | 20 | 6 | 9.7 | 12.9 | 0.00 | 0.00 | 0.00 | 16 | 814.0 |
| 20260508013022 | 20 | 20 | 12.9 | 17.7 | 0.00 | 0.00 | 0.00 | 17 | 814.1 |
| 20260508012519 | 20 | 17 | 11.3 | 14.5 | 0.00 | 0.00 | 0.00 | 17 | 814.0 |
| 20260508012016 | 20 | 45 | 4.8 | 4.8 | 0.00 | 0.00 | 0.00 | 17 | 814.2 |
| 20260508011515 | 20 | 0 | 12.9 | 14.5 | 0.00 | 0.00 | 0.00 | 15 | 814.3 |
| 20260508011011 | 20 | 359 | 6.4 | 11.3 | 0.00 | 0.00 | 0.00 | 16 | 814.0 |
| 20260508010508 | 20 | 25 | 4.8 | 8.0 | 0.00 | 0.00 | 0.00 | 15 | 813.9 |
| 20260508010006 | 20 | 4 | 11.3 | 14.5 | 0.00 | 0.00 | 0.00 | 15 | 813.6 |
| 20260508005502 | 20 | 19 | 3.2 | 4.8 | 0.00 | 0.00 | 0.00 | 14 | 813.7 |
| 20260508004959 | 20 | 351 | 4.8 | 4.8 | 0.00 | 0.00 | 0.00 | 13 | 813.2 |
| 20260508004454 | 20 | 10 | 4.8 | 4.8 | 0.00 | 0.00 | 0.00 | 15 | 813.3 |
| 20260508003952 | 20 | 1 | 3.2 | 3.2 | 0.00 | 0.00 | 0.00 | 15 | 813.5 |
| 20260508003448 | 21 | 39 | 4.8 | 4.8 | 0.00 | 0.00 | 0.00 | 12 | 813.0 |
| 20260508002945 | 20 | 6 | 4.8 | 4.8 | 0.00 | 0.00 | 0.00 | 11 | 813.0 |
| 20260508002441 | 20 | 337 | 4.8 | 4.8 | 0.00 | 0.00 | 0.00 | 12 | 812.9 |
| 20260508001937 | 20 | 312 | 0.0 | 1.6 | 0.00 | 0.00 | 0.00 | 13 | 812.6 |
| 20260508001435 | 21 | 299 | 1.6 | 1.6 | 0.00 | 0.00 | 0.00 | 12 | 812.5 |
| 20260508000931 | 21 | 319 | 3.2 | 4.8 | 0.00 | 0.00 | 0.00 | 11 | 812.4 |
| 20260508000427 | 21 | 288 | 1.6 | 3.2 | 0.00 | 0.00 | 0.00 | 11 | 812.1 |
| 20260507235924 | 21 | 352 | 4.8 | 4.8 | 0.00 | 0.00 | 0.00 | 10 | 812.1 |
| 20260507235421 | 22 | 359 | 8.0 | 11.3 | 0.00 | 0.00 | 0.00 | 10 | 812.1 |
| 20260507234918 | 22 | 334 | 8.0 | 9.7 | 0.00 | 0.00 | 0.00 | 10 | 812.0 |
| 20260507234415 | 22 | 351 | 4.8 | 4.8 | 0.00 | 0.00 | 0.00 | 10 | 812.1 |
| 20260507233911 | 22 | 323 | 4.8 | 8.0 | 0.00 | 0.00 | 0.00 | 10 | 811.7 |
| 20260507233409 | 22 | 3 | 8.0 | 9.7 | 0.00 | 0.00 | 0.00 | 10 | 811.7 |
| 20260507232907 | 22 | 36 | 9.7 | 11.3 | 0.00 | 0.00 | 0.00 | 10 | 811.7 |
| 20260507232403 | 22 | 20 | 11.3 | 12.9 | 0.00 | 0.00 | 0.00 | 10 | 811.7 |
| 20260507231901 | 22 | 39 | 6.4 | 9.7 | 0.00 | 0.00 | 0.00 | 10 | 811.6 |
| 20260507231357 | 22 | 344 | 8.0 | 11.3 | 0.00 | 0.00 | 0.00 | 10 | 811.5 |
| 20260507230853 | 22 | 3 | 12.9 | 14.5 | 0.00 | 0.00 | 0.00 | 10 | 811.6 |
| 20260507230351 | 22 | 356 | 9.7 | 11.3 | 0.00 | 0.00 | 0.00 | 10 | 811.4 |
| 20260507225850 | 21 | 0 | 3.2 | 4.8 | 0.00 | 0.00 | 0.00 | 11 | 811.5 |
| 20260507225347 | 21 | 0 | 3.2 | 3.2 | 0.00 | 0.00 | 0.00 | 11 | 811.5 |
| 20260507224843 | 22 | 312 | 3.2 | 3.2 | 0.00 | 0.00 | 0.00 | 12 | 811.5 |
| 20260507224340 | 22 | 317 | 4.8 | 4.8 | 0.00 | 0.00 | 0.00 | 10 | 811.4 |
| 20260507223836 | 22 | 295 | 6.4 | 8.0 | 0.00 | 0.00 | 0.00 | 10 | 811.7 |
| 20260507223332 | 22 | 12 | 4.8 | 8.0 | 0.00 | 0.00 | 0.00 | 10 | 811.6 |
| 20260507222829 | 22 | 342 | 8.0 | 9.7 | 0.00 | 0.00 | 0.00 | 10 | 811.3 |
| 20260507222325 | 22 | 320 | 6.4 | 8.0 | 0.00 | 0.00 | 0.00 | 10 | 811.4 |
| 20260507221823 | 22 | 307 | 4.8 | 4.8 | 0.00 | 0.00 | 0.00 | 10 | 811.1 |
| 20260507221319 | 22 | 320 | 4.8 | 4.8 | 0.00 | 0.00 | 0.00 | 11 | 811.0 |
| 20260507220815 | 22 | 325 | 8.0 | 9.7 | 0.00 | 0.00 | 0.00 | 10 | 811.2 |
| 20260507220314 | 22 | 3 | 4.8 | 4.8 | 0.00 | 0.00 | 0.00 | 10 | 811.4 |
| 20260507215810 | 22 | 340 | 3.2 | 3.2 | 0.00 | 0.00 | 0.00 | 12 | 811.1 |
| 20260507215307 | 23 | 346 | 4.8 | 4.8 | 0.00 | 0.00 | 0.00 | 10 | 811.1 |
| 20260507214804 | 24 | 321 | 4.8 | 4.8 | 0.00 | 0.00 | 0.00 | 10 | 811.1 |
| 20260507214302 | 23 | 293 | 4.8 | 4.8 | 0.00 | 0.00 | 0.00 | 10 | 811.1 |
| 20260507213756 | 23 | 321 | 6.4 | 9.7 | 0.00 | 0.00 | 0.00 | 10 | 811.1 |
| 20260507213254 | 24 | 311 | 4.8 | 4.8 | 0.00 | 0.00 | 0.00 | 10 | 811.0 |
| 20260507212750 | 25 | 293 | 4.8 | 4.8 | 0.00 | 0.00 | 0.00 | 10 | 811.0 |
| 20260507212246 | 25 | 330 | 8.0 | 9.7 | 0.00 | 0.00 | 0.00 | 10 | 811.0 |
| 20260507211743 | 26 | 295 | 4.8 | 4.8 | 0.00 | 0.00 | 0.00 | 10 | 811.1 |
| 20260507211239 | 26 | 296 | 4.8 | 4.8 | 0.00 | 0.00 | 0.00 | 10 | 810.7 |
| 20260507210736 | 26 | 286 | 4.8 | 4.8 | 0.00 | 0.00 | 0.00 | 10 | 810.7 |
| 20260507210233 | 26 | 308 | 6.4 | 8.0 | 0.00 | 0.00 | 0.00 | 10 | 810.7 |
| 20260507205730 | 26 | 319 | 6.4 | 8.0 | 0.00 | 0.00 | 0.00 | 10 | 810.7 |
| 20260507205227 | 26 | 280 | 4.8 | 9.7 | 0.00 | 0.00 | 0.00 | 10 | 810.6 |
| 20260507204723 | 26 | 288 | 8.0 | 9.7 | 0.00 | 0.00 | 0.00 | 10 | 810.6 |
| 20260507204221 | 26 | 283 | 3.2 | 4.8 | 0.00 | 0.00 | 0.00 | 10 | 810.8 |
| 20260507203719 | 26 | 285 | 6.4 | 8.0 | 0.00 | 0.00 | 0.00 | 10 | 810.7 |
| 20260507203216 | 26 | 285 | 4.8 | 4.8 | 0.00 | 0.00 | 0.00 | 10 | 810.7 |
| 20260507202712 | 26 | 251 | 1.6 | 1.6 | 0.00 | 0.00 | 0.00 | 10 | 810.7 |
| 20260507202208 | 26 | 237 | 8.0 | 9.7 | 0.00 | 0.00 | 0.00 | 10 | 810.4 |
| 20260507201703 | 27 | 250 | 8.0 | 9.7 | 0.00 | 0.00 | 0.00 | 10 | 810.6 |
| 20260507201200 | 27 | 272 | 4.8 | 8.0 | 0.00 | 0.00 | 0.00 | 10 | 810.6 |
| 20260507200656 | 27 | 244 | 17.7 | 22.5 | 0.00 | 0.00 | 0.00 | 10 | 810.4 |
| 20260507200152 | 27 | 231 | 11.3 | 14.5 | 0.00 | 0.00 | 0.00 | 10 | 810.6 |
| 20260507195649 | 26 | 255 | 6.4 | 9.7 | 0.00 | 0.00 | 0.00 | 10 | 810.6 |
| 20260507195146 | 26 | 281 | 4.8 | 9.7 | 0.00 | 0.00 | 0.00 | 10 | 810.6 |
| 20260507194643 | 26 | 305 | 11.3 | 12.9 | 0.00 | 0.00 | 0.00 | 10 | 810.6 |
| 20260507194138 | 26 | 283 | 4.8 | 4.8 | 0.00 | 0.00 | 0.00 | 10 | 810.8 |
| 20260507193635 | 27 | 250 | 16.1 | 22.5 | 0.00 | 0.00 | 0.00 | 10 | 810.6 |
| 20260507193133 | 27 | 231 | 12.9 | 20.9 | 0.00 | 0.00 | 0.00 | 10 | 810.3 |
| 20260507192629 | 27 | 270 | 14.5 | 17.7 | 0.00 | 0.00 | 0.00 | 10 | 810.6 |
| 20260507192126 | 27 | 230 | 8.0 | 11.3 | 0.00 | 0.00 | 0.00 | 10 | 810.5 |
| 20260507191621 | 27 | 325 | 22.5 | 32.2 | 0.00 | 0.00 | 0.00 | 10 | 810.8 |
| 20260507191118 | 27 | 273 | 12.9 | 20.9 | 0.00 | 0.00 | 0.00 | 10 | 810.5 |
| 20260507190615 | 27 | 271 | 19.3 | 20.9 | 0.00 | 0.00 | 0.00 | 10 | 810.7 |
| 20260507190115 | 27 | 200 | 12.9 | 16.1 | 0.00 | 0.00 | 0.00 | 10 | 810.8 |
| 20260507185613 | 27 | 212 | 14.5 | 20.9 | 0.00 | 0.00 | 0.00 | 10 | 810.7 |
| 20260507185108 | 28 | 212 | 11.3 | 14.5 | 0.00 | 0.00 | 0.00 | 10 | 811.0 |
| 20260507184607 | 28 | 165 | 8.0 | 9.7 | 0.00 | 0.00 | 0.00 | 10 | 810.8 |
| 20260507184104 | 28 | 186 | 4.8 | 4.8 | 0.00 | 0.00 | 0.00 | 10 | 811.1 |
| 20260507183600 | 28 | 270 | 8.0 | 9.7 | 0.00 | 0.00 | 0.00 | 10 | 811.0 |
| 20260507183057 | 28 | 300 | 3.2 | 4.8 | 0.00 | 0.00 | 0.00 | 10 | 811.4 |
| 20260507182554 | 28 | 233 | 0.0 | 1.6 | 0.00 | 0.00 | 0.00 | 10 | 811.3 |
| 20260507182049 | 27 | 342 | 4.8 | 4.8 | 0.00 | 0.00 | 0.00 | 10 | 811.3 |
| 20260507181547 | 27 | 220 | 1.6 | 3.2 | 0.00 | 0.00 | 0.00 | 10 | 811.3 |
| 20260507181043 | 28 | 156 | 3.2 | 3.2 | 0.00 | 0.00 | 0.00 | 10 | 811.6 |
| 20260507180539 | 28 | 293 | 1.6 | 3.2 | 0.00 | 0.00 | 0.00 | 10 | 811.6 |
| 20260507180037 | 28 | 210 | 1.6 | 3.2 | 0.00 | 0.00 | 0.00 | 10 | 811.7 |
| 20260507175532 | 28 | 106 | 6.4 | 8.0 | 0.00 | 0.00 | 0.00 | 10 | 811.9 |
| 20260507175030 | 27 | 167 | 4.8 | 8.0 | 0.00 | 0.00 | 0.00 | 10 | 811.9 |
| 20260507174527 | 27 | 180 | 6.4 | 8.0 | 0.00 | 0.00 | 0.00 | 10 | 812.0 |
| 20260507174025 | 27 | 183 | 4.8 | 4.8 | 0.00 | 0.00 | 0.00 | 10 | 812.0 |
| 20260507173521 | 27 | 318 | 1.6 | 1.6 | 0.00 | 0.00 | 0.00 | 10 | 812.1 |
| 20260507173019 | 27 | 38 | 4.8 | 4.8 | 0.00 | 0.00 | 0.00 | 10 | 812.4 |
| 20260507172515 | 28 | 282 | 1.6 | 1.6 | 0.00 | 0.00 | 0.00 | 10 | 812.6 |
| 20260507172012 | 27 | 57 | 9.7 | 11.3 | 0.00 | 0.00 | 0.00 | 10 | 813.0 |
| 20260507171507 | 26 | 317 | 1.6 | 3.2 | 0.00 | 0.00 | 0.00 | 10 | 812.7 |
| 20260507171005 | 26 | 52 | 3.2 | 3.2 | 0.00 | 0.00 | 0.00 | 10 | 812.9 |
| 20260507170501 | 27 | 91 | 4.8 | 8.0 | 0.00 | 0.00 | 0.00 | 10 | 813.1 |
| 20260507165958 | 26 | 132 | 3.2 | 3.2 | 0.00 | 0.00 | 0.00 | 10 | 812.9 |
| 20260507165454 | 26 | 190 | 6.4 | 8.0 | 0.00 | 0.00 | 0.00 | 10 | 813.3 |
| 20260507164950 | 27 | 265 | 1.6 | 1.6 | 0.00 | 0.00 | 0.00 | 10 | 813.6 |
| 20260507164447 | 27 | 317 | 1.6 | 3.2 | 0.00 | 0.00 | 0.00 | 10 | 813.3 |
| 20260507163943 | 26 | 197 | 4.8 | 4.8 | 0.00 | 0.00 | 0.00 | 10 | 813.7 |
| 20260507163441 | 26 | 135 | 6.4 | 8.0 | 0.00 | 0.00 | 0.00 | 10 | 813.9 |
| 20260507162938 | 25 | 46 | 4.8 | 4.8 | 0.00 | 0.00 | 0.00 | 10 | 814.0 |
| 20260507162433 | 25 | 153 | 6.4 | 8.0 | 0.00 | 0.00 | 0.00 | 10 | 814.0 |
| 20260507161931 | 26 | 28 | 1.6 | 1.6 | 0.00 | 0.00 | 0.00 | 10 | 814.0 |
| 20260507161427 | 25 | 305 | 3.2 | 3.2 | 0.00 | 0.00 | 0.00 | 10 | 814.0 |
| 20260507160924 | 25 | 190 | 1.6 | 1.6 | 0.00 | 0.00 | 0.00 | 10 | 814.1 |
| 20260507160420 | 25 | 91 | 0.0 | 1.6 | 0.00 | 0.00 | 0.00 | 12 | 814.4 |
| 20260507155915 | 25 | 109 | 4.8 | 9.7 | 0.00 | 0.00 | 0.00 | 15 | 814.2 |
| 20260507155412 | 24 | 211 | 3.2 | 3.2 | 0.00 | 0.00 | 0.00 | 15 | 814.4 |
| 20260507154909 | 25 | 189 | 4.8 | 4.8 | 0.00 | 0.00 | 0.00 | 15 | 814.8 |
| 20260507154406 | 23 | 155 | 4.8 | 8.0 | 0.00 | 0.00 | 0.00 | 16 | 814.6 |
| 20260507153903 | 23 | 214 | 1.6 | 3.2 | 0.00 | 0.00 | 0.00 | 19 | 815.0 |
| 20260507153359 | 22 | 187 | 4.8 | 4.8 | 0.00 | 0.00 | 0.00 | 19 | 815.0 |
| 20260507152856 | 23 | 161 | 6.4 | 8.0 | 0.00 | 0.00 | 0.00 | 18 | 815.1 |
| 20260507152352 | 22 | 172 | 6.4 | 8.0 | 0.00 | 0.00 | 0.00 | 21 | 815.2 |
| 20260507151848 | 22 | 204 | 6.4 | 8.0 | 0.00 | 0.00 | 0.00 | 19 | 815.4 |
| 20260507151344 | 22 | 264 | 1.6 | 3.2 | 0.00 | 0.00 | 0.00 | 19 | 815.4 |
| 20260507150842 | 22 | 188 | 4.8 | 4.8 | 0.00 | 0.00 | 0.00 | 20 | 815.7 |
| 20260507150338 | 21 | 61 | 1.6 | 1.6 | 0.00 | 0.00 | 0.00 | 20 | 815.6 |
| 20260507145834 | 22 | 151 | 1.6 | 3.2 | 0.00 | 0.00 | 0.00 | 23 | 815.7 |
| 20260507145331 | 21 | 244 | 1.6 | 1.6 | 0.00 | 0.00 | 0.00 | 21 | 815.7 |
| 20260507144828 | 21 | 170 | 3.2 | 4.8 | 0.00 | 0.00 | 0.00 | 24 | 816.0 |
| 20260507144325 | 21 | 140 | 6.4 | 8.0 | 0.00 | 0.00 | 0.00 | 23 | 815.8 |
| 20260507143822 | 21 | 241 | 1.6 | 3.2 | 0.00 | 0.00 | 0.00 | 25 | 816.1 |
| 20260507143319 | 21 | 225 | 1.6 | 3.2 | 0.00 | 0.00 | 0.00 | 24 | 816.0 |
| 20260507142815 | 21 | 199 | 0.0 | 0.0 | 0.00 | 0.00 | 0.00 | 24 | 816.3 |
| 20260507142312 | 20 | 262 | 1.6 | 1.6 | 0.00 | 0.00 | 0.00 | 27 | 816.3 |
| 20260507141809 | 20 | 207 | 3.2 | 3.2 | 0.00 | 0.00 | 0.00 | 28 | 816.3 |
| 20260507141305 | 20 | 273 | 1.6 | 3.2 | 0.00 | 0.00 | 0.00 | 29 | 816.4 |
| 20260507140801 | 19 | 248 | 3.2 | 4.8 | 0.00 | 0.00 | 0.00 | 29 | 816.4 |
| 20260507140259 | 20 | 222 | 3.2 | 3.2 | 0.00 | 0.00 | 0.00 | 30 | 816.5 |
| 20260507135756 | 19 | 187 | 3.2 | 3.2 | 0.00 | 0.00 | 0.00 | 29 | 816.4 |
| 20260507135253 | 19 | 232 | 3.2 | 3.2 | 0.00 | 0.00 | 0.00 | 25 | 816.8 |
| 20260507134749 | 20 | 140 | 4.8 | 4.8 | 0.00 | 0.00 | 0.00 | 28 | 816.5 |
| 20260507134246 | 18 | 219 | 0.0 | 1.6 | 0.00 | 0.00 | 0.00 | 27 | 816.4 |
| 20260507133742 | 20 | 131 | 1.6 | 4.8 | 0.00 | 0.00 | 0.00 | 27 | 816.7 |
| 20260507133239 | 20 | 336 | 1.6 | 1.6 | 0.00 | 0.00 | 0.00 | 25 | 816.7 |
| 20260507132736 | 19 | 188 | 1.6 | 3.2 | 0.00 | 0.00 | 0.00 | 29 | 816.8 |
| 20260507132233 | 18 | 221 | 1.6 | 1.6 | 0.00 | 0.00 | 0.00 | 32 | 816.7 |
| 20260507131730 | 17 | 169 | 0.0 | 0.0 | 0.00 | 0.00 | 0.00 | 31 | 816.6 |
| 20260507131227 | 17 | 234 | 0.0 | 1.6 | 0.00 | 0.00 | 0.00 | 34 | 816.7 |
| 20260507130723 | 17 | 186 | 1.6 | 1.6 | 0.00 | 0.00 | 0.00 | 35 | 816.4 |
| 20260507130221 | 17 | 189 | 1.6 | 3.2 | 0.00 | 0.00 | 0.00 | 36 | 816.7 |
| 20260507125720 | 16 | 243 | 0.0 | 0.0 | 0.00 | 0.00 | 0.00 | 33 | 816.9 |
| 20260507125217 | 16 | 196 | 1.6 | 1.6 | 0.00 | 0.00 | 0.00 | 38 | 816.7 |
| 20260507124713 | 16 | 233 | 1.6 | 1.6 | 0.00 | 0.00 | 0.00 | 36 | 816.8 |
| 20260507124211 | 16 | 186 | 4.8 | 4.8 | 0.00 | 0.00 | 0.00 | 36 | 816.5 |
| 20260507123709 | 16 | 223 | 0.0 | 1.6 | 0.00 | 0.00 | 0.00 | 33 | 816.5 |
| 20260507123206 | 15 | 222 | 1.6 | 1.6 | 0.00 | 0.00 | 0.00 | 36 | 816.3 |
| 20260507122701 | 17 | 265 | 0.0 | 1.6 | 0.00 | 0.00 | 0.00 | 32 | 816.2 |
| 20260507122157 | 16 | 304 | 0.0 | 0.0 | 0.00 | 0.00 | 0.00 | 29 | 816.5 |
| 20260507121653 | 15 | 304 | 0.0 | 0.0 | 0.00 | 0.00 | 0.00 | 34 | 816.5 |
| 20260507121149 | 14 | 313 | 3.2 | 3.2 | 0.00 | 0.00 | 0.00 | 36 | 816.3 |
| 20260507120646 | 15 | 342 | 1.6 | 1.6 | 0.00 | 0.00 | 0.00 | 35 | 816.7 |
| 20260507120142 | 16 | 341 | 1.6 | 1.6 | 0.00 | 0.00 | 0.00 | 35 | 816.9 |
| 20260507115638 | 15 | 342 | 0.0 | 0.0 | 0.00 | 0.00 | 0.00 | 37 | 816.8 |
| 20260507115134 | 14 | 342 | 0.0 | 0.0 | 0.00 | 0.00 | 0.00 | 38 | 817.2 |
| 20260507114630 | 13 | 342 | 0.0 | 1.6 | 0.00 | 0.00 | 0.00 | 39 | 817.0 |
| 20260507114128 | 14 | 343 | 1.6 | 1.6 | 0.00 | 0.00 | 0.00 | 36 | 817.0 |
| 20260507113625 | 13 | 343 | 1.6 | 1.6 | 0.00 | 0.00 | 0.00 | 36 | 817.0 |
| 20260507113122 | 11 | 75 | 3.2 | 3.2 | 0.00 | 0.00 | 0.00 | 41 | 816.8 |
| 20260507112620 | 11 | 80 | 0.0 | 0.0 | 0.00 | 0.00 | 0.00 | 39 | 816.8 |
| 20260507112116 | 11 | 86 | 0.0 | 1.6 | 0.00 | 0.00 | 0.00 | 40 | 816.8 |
| 20260507111614 | 11 | 340 | 1.6 | 1.6 | 0.00 | 0.00 | 0.00 | 37 | 816.7 |
| 20260507111110 | 12 | 345 | 1.6 | 1.6 | 0.00 | 0.00 | 0.00 | 35 | 816.7 |
| 20260507110606 | 12 | 330 | 3.2 | 3.2 | 0.00 | 0.00 | 0.00 | 33 | 816.6 |
| 20260507110103 | 12 | 345 | 1.6 | 1.6 | 0.00 | 0.00 | 0.00 | 31 | 816.6 |
| 20260507105600 | 12 | 332 | 1.6 | 3.2 | 0.00 | 0.00 | 0.00 | 32 | 816.6 |
| 20260507105056 | 11 | 321 | 3.2 | 3.2 | 0.00 | 0.00 | 0.00 | 32 | 816.5 |
| 20260507104553 | 12 | 300 | 1.6 | 1.6 | 0.00 | 0.00 | 0.00 | 33 | 816.6 |
| 20260507104050 | 11 | 342 | 4.8 | 4.8 | 0.00 | 0.00 | 0.00 | 32 | 816.1 |
| 20260507103546 | 12 | 5 | 4.8 | 4.8 | 0.00 | 0.00 | 0.00 | 37 | 816.3 |
| 20260507103043 | 11 | 352 | 3.2 | 3.2 | 0.00 | 0.00 | 0.00 | 40 | 816.4 |
| 20260507102539 | 11 | 2 | 4.8 | 4.8 | 0.00 | 0.00 | 0.00 | 41 | 816.5 |
| 20260507102035 | 11 | 15 | 0.0 | 0.0 | 0.00 | 0.00 | 0.00 | 40 | 816.3 |
| 20260507101531 | 11 | 16 | 4.8 | 4.8 | 0.00 | 0.00 | 0.00 | 40 | 816.2 |
| 20260507101027 | 11 | 29 | 1.6 | 1.6 | 0.00 | 0.00 | 0.00 | 39 | 816.3 |
| 20260507100525 | 11 | 62 | 4.8 | 4.8 | 0.00 | 0.00 | 0.00 | 38 | 816.3 |
| 20260507100023 | 12 | 106 | 1.6 | 1.6 | 0.00 | 0.00 | 0.00 | 38 | 816.2 |
| 20260507095521 | 12 | 78 | 4.8 | 4.8 | 0.00 | 0.00 | 0.00 | 34 | 816.1 |
| 20260507095017 | 13 | 82 | 4.8 | 4.8 | 0.00 | 0.00 | 0.00 | 34 | 816.2 |
| 20260507094513 | 13 | 59 | 4.8 | 8.0 | 0.00 | 0.00 | 0.00 | 32 | 815.8 |
| 20260507094010 | 12 | 358 | 3.2 | 3.2 | 0.00 | 0.00 | 0.00 | 31 | 815.8 |
| 20260507093508 | 12 | 354 | 4.8 | 4.8 | 0.00 | 0.00 | 0.00 | 32 | 815.8 |
| 20260507093007 | 13 | 354 | 4.8 | 4.8 | 0.00 | 0.00 | 0.00 | 28 | 815.8 |
| 20260507092502 | 13 | 3 | 4.8 | 4.8 | 0.00 | 0.00 | 0.00 | 28 | 815.7 |
| 20260507091959 | 13 | 42 | 3.2 | 4.8 | 0.00 | 0.00 | 0.00 | 28 | 815.7 |
| 20260507091456 | 13 | 40 | 4.8 | 4.8 | 0.00 | 0.00 | 0.00 | 22 | 815.6 |
| 20260507090952 | 13 | 29 | 4.8 | 4.8 | 0.00 | 0.00 | 0.00 | 28 | 815.7 |
| 20260507090448 | 12 | 354 | 1.6 | 1.6 | 0.00 | 0.00 | 0.00 | 34 | 816.0 |
| 20260507085944 | 13 | 345 | 4.8 | 4.8 | 0.00 | 0.00 | 0.00 | 31 | 815.7 |
| 20260507085442 | 11 | 345 | 4.8 | 4.8 | 0.00 | 0.00 | 0.00 | 36 | 815.8 |
| 20260507084938 | 11 | 346 | 3.2 | 3.2 | 0.00 | 0.00 | 0.00 | 40 | 816.0 |
| 20260507084435 | 11 | 0 | 3.2 | 3.2 | 0.00 | 0.00 | 0.00 | 38 | 815.7 |
| 20260507083932 | 12 | 351 | 3.2 | 3.2 | 0.00 | 0.00 | 0.00 | 36 | 815.7 |
| 20260507083429 | 11 | 338 | 3.2 | 3.2 | 0.00 | 0.00 | 0.00 | 37 | 816.0 |
| 20260507082925 | 11 | 349 | 4.8 | 4.8 | 0.00 | 0.00 | 0.00 | 38 | 815.7 |
| 20260507082421 | 12 | 353 | 3.2 | 3.2 | 0.00 | 0.00 | 0.00 | 41 | 815.6 |
| 20260507081918 | 11 | 352 | 3.2 | 3.2 | 0.00 | 0.00 | 0.00 | 42 | 815.8 |
| 20260507081414 | 12 | 321 | 3.2 | 3.2 | 0.00 | 0.00 | 0.00 | 37 | 815.6 |
| 20260507080911 | 11 | 313 | 3.2 | 3.2 | 0.00 | 0.00 | 0.00 | 42 | 815.6 |
| 20260507080407 | 12 | 2 | 4.8 | 4.8 | 0.00 | 0.00 | 0.00 | 39 | 815.6 |
| 20260507075903 | 12 | 27 | 3.2 | 3.2 | 0.00 | 0.00 | 0.00 | 37 | 815.6 |
| 20260507075359 | 13 | 57 | 1.6 | 1.6 | 0.00 | 0.00 | 0.00 | 37 | 815.6 |
| 20260507074855 | 12 | 57 | 1.6 | 3.2 | 0.00 | 0.00 | 0.00 | 36 | 815.5 |
| 20260507074353 | 13 | 327 | 3.2 | 3.2 | 0.00 | 0.00 | 0.00 | 32 | 815.5 |
| 20260507073850 | 13 | 345 | 3.2 | 3.2 | 0.00 | 0.00 | 0.00 | 37 | 815.2 |
| 20260507073346 | 13 | 12 | 1.6 | 3.2 | 0.00 | 0.00 | 0.00 | 33 | 815.5 |
| 20260507072844 | 13 | 358 | 4.8 | 4.8 | 0.00 | 0.00 | 0.00 | 33 | 815.1 |
| 20260507072341 | 13 | 322 | 3.2 | 3.2 | 0.00 | 0.00 | 0.00 | 35 | 815.2 |
| 20260507071839 | 13 | 344 | 3.2 | 3.2 | 0.00 | 0.00 | 0.00 | 31 | 815.4 |
| 20260507071336 | 13 | 344 | 3.2 | 3.2 | 0.00 | 0.00 | 0.00 | 30 | 815.4 |
| 20260507070832 | 13 | 340 | 4.8 | 4.8 | 0.00 | 0.00 | 0.00 | 31 | 815.4 |
| 20260507070329 | 13 | 352 | 3.2 | 3.2 | 0.00 | 0.00 | 0.00 | 31 | 815.6 |
| 20260507065826 | 13 | 311 | 4.8 | 4.8 | 0.00 | 0.00 | 0.00 | 33 | 815.4 |
| 20260507065322 | 13 | 309 | 3.2 | 3.2 | 0.00 | 0.00 | 0.00 | 30 | 815.4 |
| 20260507064820 | 13 | 308 | 1.6 | 3.2 | 0.00 | 0.00 | 0.00 | 29 | 815.6 |
| 20260507064318 | 13 | 329 | 3.2 | 3.2 | 0.00 | 0.00 | 0.00 | 33 | 815.6 |
| 20260507063816 | 13 | 4 | 1.6 | 1.6 | 0.00 | 0.00 | 0.00 | 32 | 815.4 |
| 20260507063312 | 13 | 343 | 4.8 | 4.8 | 0.00 | 0.00 | 0.00 | 33 | 815.5 |
| 20260507062809 | 14 | 331 | 1.6 | 1.6 | 0.00 | 0.00 | 0.00 | 34 | 815.5 |
| 20260507062306 | 14 | 331 | 1.6 | 1.6 | 0.00 | 0.00 | 0.00 | 31 | 815.7 |
| 20260507061804 | 14 | 308 | 3.2 | 3.2 | 0.00 | 0.00 | 0.00 | 31 | 815.8 |
| 20260507061302 | 14 | 288 | 3.2 | 3.2 | 0.00 | 0.00 | 0.00 | 28 | 816.0 |
| 20260507060800 | 14 | 291 | 4.8 | 4.8 | 0.00 | 0.00 | 0.00 | 28 | 816.0 |
| 20260507060256 | 14 | 307 | 3.2 | 3.2 | 0.00 | 0.00 | 0.00 | 28 | 815.7 |
| 20260507055753 | 14 | 307 | 1.6 | 3.2 | 0.00 | 0.00 | 0.00 | 29 | 815.7 |
| 20260507055248 | 13 | 340 | 3.2 | 3.2 | 0.00 | 0.00 | 0.00 | 32 | 815.7 |
| 20260507054745 | 14 | 21 | 1.6 | 3.2 | 0.00 | 0.00 | 0.00 | 28 | 816.1 |
| 20260507054241 | 14 | 8 | 3.2 | 3.2 | 0.00 | 0.00 | 0.00 | 29 | 816.0 |
| 20260507053739 | 14 | 1 | 3.2 | 3.2 | 0.00 | 0.00 | 0.00 | 31 | 816.1 |
| 20260507053236 | 15 | 0 | 3.2 | 3.2 | 0.00 | 0.00 | 0.00 | 29 | 816.1 |
| 20260507052735 | 14 | 3 | 3.2 | 3.2 | 0.00 | 0.00 | 0.00 | 31 | 816.4 |
| 20260507052231 | 14 | 359 | 3.2 | 3.2 | 0.00 | 0.00 | 0.00 | 33 | 816.3 |
| 20260507051729 | 15 | 347 | 3.2 | 3.2 | 0.00 | 0.00 | 0.00 | 31 | 816.3 |
| 20260507051226 | 13 | 338 | 4.8 | 4.8 | 0.00 | 0.00 | 0.00 | 30 | 816.2 |
| 20260507050722 | 13 | 299 | 4.8 | 4.8 | 0.00 | 0.00 | 0.00 | 35 | 816.3 |